sensor_id;sensor_type;location;lat;lon;timestamp;temperature;humidity
16384;DHT22;8301;51.440;6.610;2022-11-24T00:01:19;8.00;99.90
16384;DHT22;8301;51.440;6.610;2022-11-24T00:03:58;8.00;99.90
16384;DHT22;8301;51.440;6.610;2022-11-24T00:06:27;8.00;99.90
16384;DHT22;8301;51.440;6.610;2022-11-24T00:08:56;8.00;99.90
16384;DHT22;8301;51.440;6.610;2022-11-24T00:11:31;8.00;99.90
16384;DHT22;8301;51.440;6.610;2022-11-24T00:13:54;7.90;99.90
16384;DHT22;8301;51.440;6.610;2022-11-24T00:16:31;7.90;99.90
16384;DHT22;8301;51.440;6.610;2022-11-24T00:19:00;7.80;99.90
16384;DHT22;8301;51.440;6.610;2022-11-24T00:21:30;7.90;99.90
16384;DHT22;8301;51.440;6.610;2022-11-24T00:23:58;7.80;99.90
16384;DHT22;8301;51.440;6.610;2022-11-24T00:26:31;7.80;99.90
16384;DHT22;8301;51.440;6.610;2022-11-24T00:29:01;7.80;99.90
16384;DHT22;8301;51.440;6.610;2022-11-24T00:31:31;7.90;99.90
16384;DHT22;8301;51.440;6.610;2022-11-24T00:34:02;7.90;99.90
16384;DHT22;8301;51.440;6.610;2022-11-24T00:36:31;7.80;99.90
16384;DHT22;8301;51.440;6.610;2022-11-24T00:39:06;7.80;99.90
16384;DHT22;8301;51.440;6.610;2022-11-24T00:41:31;7.80;99.90
16384;DHT22;8301;51.440;6.610;2022-11-24T00:43:59;7.70;99.90
16384;DHT22;8301;51.440;6.610;2022-11-24T00:46:26;7.70;99.90
16384;DHT22;8301;51.440;6.610;2022-11-24T00:48:54;7.70;99.90
16384;DHT22;8301;51.440;6.610;2022-11-24T00:51:23;7.70;99.90
16384;DHT22;8301;51.440;6.610;2022-11-24T00:53:57;7.70;99.90
16384;DHT22;8301;51.440;6.610;2022-11-24T00:56:27;7.80;99.90
16384;DHT22;8301;51.440;6.610;2022-11-24T00:58:56;7.70;99.90
16384;DHT22;8301;51.440;6.610;2022-11-24T01:01:26;7.70;99.90
16384;DHT22;8301;51.440;6.610;2022-11-24T01:03:54;7.70;99.90
16384;DHT22;8301;51.440;6.610;2022-11-24T01:06:24;7.70;99.90
16384;DHT22;8301;51.440;6.610;2022-11-24T01:08:52;7.70;99.90
16384;DHT22;8301;51.440;6.610;2022-11-24T01:11:22;7.70;99.90
16384;DHT22;8301;51.440;6.610;2022-11-24T01:13:58;7.70;99.90
16384;DHT22;8301;51.440;6.610;2022-11-24T01:16:28;7.80;99.90
16384;DHT22;8301;51.440;6.610;2022-11-24T01:18:56;7.80;99.90
16384;DHT22;8301;51.440;6.610;2022-11-24T01:21:25;7.80;99.90
16384;DHT22;8301;51.440;6.610;2022-11-24T01:23:53;7.80;99.90
16384;DHT22;8301;51.440;6.610;2022-11-24T01:26:21;7.90;99.90
16384;DHT22;8301;51.440;6.610;2022-11-24T01:28:54;8.00;99.90
16384;DHT22;8301;51.440;6.610;2022-11-24T01:31:22;8.10;99.90
16384;DHT22;8301;51.440;6.610;2022-11-24T01:33:50;8.10;99.90
16384;DHT22;8301;51.440;6.610;2022-11-24T01:36:18;8.10;99.90
16384;DHT22;8301;51.440;6.610;2022-11-24T01:38:46;8.20;99.90
16384;DHT22;8301;51.440;6.610;2022-11-24T01:41:16;8.10;99.90
16384;DHT22;8301;51.440;6.610;2022-11-24T01:43:45;8.20;99.90
16384;DHT22;8301;51.440;6.610;2022-11-24T01:46:35;8.20;99.90
16384;DHT22;8301;51.440;6.610;2022-11-24T01:49:10;8.20;99.90
16384;DHT22;8301;51.440;6.610;2022-11-24T01:51:41;8.30;99.90
16384;DHT22;8301;51.440;6.610;2022-11-24T01:54:08;8.20;99.90
16384;DHT22;8301;51.440;6.610;2022-11-24T01:56:38;8.20;99.90
16384;DHT22;8301;51.440;6.610;2022-11-24T01:59:09;8.20;99.90
16384;DHT22;8301;51.440;6.610;2022-11-24T02:01:37;8.20;99.90
16384;DHT22;8301;51.440;6.610;2022-11-24T02:04:07;8.30;99.90
16384;DHT22;8301;51.440;6.610;2022-11-24T02:06:39;8.20;99.90
16384;DHT22;8301;51.440;6.610;2022-11-24T02:09:17;8.20;99.90
16384;DHT22;8301;51.440;6.610;2022-11-24T02:11:45;8.20;99.90
16384;DHT22;8301;51.440;6.610;2022-11-24T02:14:15;8.20;99.90
16384;DHT22;8301;51.440;6.610;2022-11-24T02:16:47;8.10;99.90
16384;DHT22;8301;51.440;6.610;2022-11-24T02:22:02;8.00;99.90
16384;DHT22;8301;51.440;6.610;2022-11-24T02:24:44;8.00;99.90
16384;DHT22;8301;51.440;6.610;2022-11-24T02:27:07;8.00;99.90
16384;DHT22;8301;51.440;6.610;2022-11-24T02:29:36;8.00;99.90
16384;DHT22;8301;51.440;6.610;2022-11-24T02:32:05;8.00;99.90
16384;DHT22;8301;51.440;6.610;2022-11-24T02:34:33;8.00;99.90
16384;DHT22;8301;51.440;6.610;2022-11-24T02:37:01;7.90;99.90
16384;DHT22;8301;51.440;6.610;2022-11-24T02:39:28;7.90;99.90
16384;DHT22;8301;51.440;6.610;2022-11-24T02:41:59;7.90;99.90
16384;DHT22;8301;51.440;6.610;2022-11-24T02:44:29;8.00;99.90
16384;DHT22;8301;51.440;6.610;2022-11-24T02:47:09;8.00;99.90
16384;DHT22;8301;51.440;6.610;2022-11-24T02:49:38;8.00;99.90
16384;DHT22;8301;51.440;6.610;2022-11-24T02:52:06;8.00;99.90
16384;DHT22;8301;51.440;6.610;2022-11-24T02:54:34;8.00;99.90
16384;DHT22;8301;51.440;6.610;2022-11-24T02:57:01;8.00;99.90
16384;DHT22;8301;51.440;6.610;2022-11-24T02:59:29;8.00;99.90
16384;DHT22;8301;51.440;6.610;2022-11-24T03:01:56;8.00;99.90
16384;DHT22;8301;51.440;6.610;2022-11-24T03:04:24;8.00;99.90
16384;DHT22;8301;51.440;6.610;2022-11-24T03:06:51;8.00;99.90
16384;DHT22;8301;51.440;6.610;2022-11-24T03:09:19;8.00;99.90
16384;DHT22;8301;51.440;6.610;2022-11-24T03:11:46;8.00;99.90
16384;DHT22;8301;51.440;6.610;2022-11-24T03:14:15;8.00;99.90
16384;DHT22;8301;51.440;6.610;2022-11-24T03:16:42;7.90;99.90
16384;DHT22;8301;51.440;6.610;2022-11-24T03:19:10;7.90;99.90
16384;DHT22;8301;51.440;6.610;2022-11-24T03:21:37;7.80;99.90
16384;DHT22;8301;51.440;6.610;2022-11-24T03:24:05;7.80;99.90
16384;DHT22;8301;51.440;6.610;2022-11-24T03:26:33;7.70;99.90
16384;DHT22;8301;51.440;6.610;2022-11-24T03:29:01;7.70;99.90
16384;DHT22;8301;51.440;6.610;2022-11-24T03:31:28;7.70;99.90
16384;DHT22;8301;51.440;6.610;2022-11-24T03:33:56;7.70;99.90
16384;DHT22;8301;51.440;6.610;2022-11-24T03:36:23;7.60;99.90
16384;DHT22;8301;51.440;6.610;2022-11-24T03:38:51;7.60;99.90
16384;DHT22;8301;51.440;6.610;2022-11-24T03:41:18;7.60;99.90
16384;DHT22;8301;51.440;6.610;2022-11-24T03:43:46;7.60;99.90
16384;DHT22;8301;51.440;6.610;2022-11-24T03:46:13;7.60;99.90
16384;DHT22;8301;51.440;6.610;2022-11-24T03:48:41;7.70;99.90
16384;DHT22;8301;51.440;6.610;2022-11-24T03:51:09;7.70;99.90
16384;DHT22;8301;51.440;6.610;2022-11-24T03:53:36;7.70;99.90
16384;DHT22;8301;51.440;6.610;2022-11-24T03:56:04;7.70;99.90
16384;DHT22;8301;51.440;6.610;2022-11-24T03:58:32;7.70;99.90
16384;DHT22;8301;51.440;6.610;2022-11-24T04:01:00;7.80;99.90
16384;DHT22;8301;51.440;6.610;2022-11-24T04:03:27;7.80;99.90
16384;DHT22;8301;51.440;6.610;2022-11-24T04:05:54;7.80;99.90
16384;DHT22;8301;51.440;6.610;2022-11-24T04:08:22;7.80;99.90
16384;DHT22;8301;51.440;6.610;2022-11-24T04:10:52;7.90;99.90
16384;DHT22;8301;51.440;6.610;2022-11-24T04:13:22;8.00;99.90
16384;DHT22;8301;51.440;6.610;2022-11-24T04:15:50;8.10;99.90
16384;DHT22;8301;51.440;6.610;2022-11-24T04:18:18;8.30;99.90
16384;DHT22;8301;51.440;6.610;2022-11-24T04:20:49;8.30;99.90
16384;DHT22;8301;51.440;6.610;2022-11-24T04:23:22;8.40;99.90
16384;DHT22;8301;51.440;6.610;2022-11-24T04:25:50;8.40;99.90
16384;DHT22;8301;51.440;6.610;2022-11-24T04:28:17;8.50;99.90
16384;DHT22;8301;51.440;6.610;2022-11-24T04:30:45;8.50;99.90
16384;DHT22;8301;51.440;6.610;2022-11-24T04:33:12;8.50;99.90
16384;DHT22;8301;51.440;6.610;2022-11-24T04:35:40;8.50;99.90
16384;DHT22;8301;51.440;6.610;2022-11-24T04:38:08;8.50;99.90
16384;DHT22;8301;51.440;6.610;2022-11-24T04:40:37;8.50;99.90
16384;DHT22;8301;51.440;6.610;2022-11-24T04:43:04;8.50;99.90
16384;DHT22;8301;51.440;6.610;2022-11-24T04:45:31;8.50;99.90
16384;DHT22;8301;51.440;6.610;2022-11-24T04:47:59;8.50;99.90
16384;DHT22;8301;51.440;6.610;2022-11-24T04:50:27;8.40;99.90
16384;DHT22;8301;51.440;6.610;2022-11-24T04:52:56;8.50;99.90
16384;DHT22;8301;51.440;6.610;2022-11-24T04:55:24;8.50;99.90
16384;DHT22;8301;51.440;6.610;2022-11-24T04:57:51;8.50;99.90
16384;DHT22;8301;51.440;6.610;2022-11-24T05:00:19;8.50;99.90
16384;DHT22;8301;51.440;6.610;2022-11-24T05:02:47;8.50;99.90
16384;DHT22;8301;51.440;6.610;2022-11-24T05:05:14;8.50;99.90
16384;DHT22;8301;51.440;6.610;2022-11-24T05:07:42;8.50;99.90
16384;DHT22;8301;51.440;6.610;2022-11-24T05:10:09;8.60;99.90
16384;DHT22;8301;51.440;6.610;2022-11-24T05:12:56;8.60;99.90
16384;DHT22;8301;51.440;6.610;2022-11-24T05:15:25;8.60;99.90
16384;DHT22;8301;51.440;6.610;2022-11-24T05:17:53;8.60;99.90
16384;DHT22;8301;51.440;6.610;2022-11-24T05:20:21;8.50;99.90
16384;DHT22;8301;51.440;6.610;2022-11-24T05:22:49;8.50;99.90
16384;DHT22;8301;51.440;6.610;2022-11-24T05:25:16;8.50;99.90
16384;DHT22;8301;51.440;6.610;2022-11-24T05:27:44;8.50;99.90
16384;DHT22;8301;51.440;6.610;2022-11-24T05:30:12;8.50;99.90
16384;DHT22;8301;51.440;6.610;2022-11-24T05:32:39;8.40;99.90
16384;DHT22;8301;51.440;6.610;2022-11-24T05:35:07;8.40;99.90
16384;DHT22;8301;51.440;6.610;2022-11-24T05:37:35;8.30;99.90
16384;DHT22;8301;51.440;6.610;2022-11-24T05:40:04;8.40;99.90
16384;DHT22;8301;51.440;6.610;2022-11-24T05:42:33;8.40;99.90
16384;DHT22;8301;51.440;6.610;2022-11-24T05:45:09;8.50;99.90
16384;DHT22;8301;51.440;6.610;2022-11-24T05:47:39;8.50;99.90
16384;DHT22;8301;51.440;6.610;2022-11-24T05:50:09;8.40;99.90
16384;DHT22;8301;51.440;6.610;2022-11-24T05:52:38;8.40;99.90
16384;DHT22;8301;51.440;6.610;2022-11-24T05:55:06;8.50;99.90
16384;DHT22;8301;51.440;6.610;2022-11-24T05:57:34;8.50;99.90
16384;DHT22;8301;51.440;6.610;2022-11-24T06:00:04;8.40;99.90
16384;DHT22;8301;51.440;6.610;2022-11-24T06:02:32;8.30;99.90
16384;DHT22;8301;51.440;6.610;2022-11-24T06:05:00;8.30;99.90
16384;DHT22;8301;51.440;6.610;2022-11-24T06:07:27;8.40;99.90
16384;DHT22;8301;51.440;6.610;2022-11-24T06:09:55;8.40;99.90
16384;DHT22;8301;51.440;6.610;2022-11-24T06:12:22;8.40;99.90
16384;DHT22;8301;51.440;6.610;2022-11-24T06:14:50;8.50;99.90
16384;DHT22;8301;51.440;6.610;2022-11-24T06:17:17;8.40;99.90
16384;DHT22;8301;51.440;6.610;2022-11-24T06:19:45;8.30;99.90
16384;DHT22;8301;51.440;6.610;2022-11-24T06:22:14;8.20;99.90
16384;DHT22;8301;51.440;6.610;2022-11-24T06:24:43;8.30;99.90
16384;DHT22;8301;51.440;6.610;2022-11-24T06:27:12;8.20;99.90
16384;DHT22;8301;51.440;6.610;2022-11-24T06:29:39;8.30;99.90
16384;DHT22;8301;51.440;6.610;2022-11-24T06:32:09;8.40;99.90
16384;DHT22;8301;51.440;6.610;2022-11-24T06:34:36;8.50;99.90
16384;DHT22;8301;51.440;6.610;2022-11-24T06:37:04;8.40;99.90
16384;DHT22;8301;51.440;6.610;2022-11-24T06:39:31;8.30;99.90
16384;DHT22;8301;51.440;6.610;2022-11-24T06:41:59;8.30;99.90
16384;DHT22;8301;51.440;6.610;2022-11-24T06:44:27;8.20;99.90
16384;DHT22;8301;51.440;6.610;2022-11-24T06:46:55;8.20;99.90
16384;DHT22;8301;51.440;6.610;2022-11-24T06:49:23;8.10;99.90
16384;DHT22;8301;51.440;6.610;2022-11-24T06:51:50;8.10;99.90
16384;DHT22;8301;51.440;6.610;2022-11-24T06:54:19;8.20;99.90
16384;DHT22;8301;51.440;6.610;2022-11-24T06:56:47;8.20;99.90
16384;DHT22;8301;51.440;6.610;2022-11-24T06:59:17;8.10;99.90
16384;DHT22;8301;51.440;6.610;2022-11-24T07:01:45;8.20;99.90
16384;DHT22;8301;51.440;6.610;2022-11-24T07:04:12;8.20;99.90
16384;DHT22;8301;51.440;6.610;2022-11-24T07:06:41;8.30;99.90
16384;DHT22;8301;51.440;6.610;2022-11-24T07:09:10;8.30;99.90
16384;DHT22;8301;51.440;6.610;2022-11-24T07:11:39;8.30;99.90
16384;DHT22;8301;51.440;6.610;2022-11-24T07:14:07;8.30;99.90
16384;DHT22;8301;51.440;6.610;2022-11-24T07:16:35;8.40;99.90
16384;DHT22;8301;51.440;6.610;2022-11-24T07:19:02;8.40;99.90
16384;DHT22;8301;51.440;6.610;2022-11-24T07:21:30;8.40;99.90
16384;DHT22;8301;51.440;6.610;2022-11-24T07:23:57;8.50;99.90
16384;DHT22;8301;51.440;6.610;2022-11-24T07:26:25;8.50;99.90
16384;DHT22;8301;51.440;6.610;2022-11-24T07:28:53;8.50;99.90
16384;DHT22;8301;51.440;6.610;2022-11-24T07:31:22;8.50;99.90
16384;DHT22;8301;51.440;6.610;2022-11-24T07:33:53;8.60;99.90
16384;DHT22;8301;51.440;6.610;2022-11-24T07:36:24;8.60;99.90
16384;DHT22;8301;51.440;6.610;2022-11-24T07:38:51;8.50;99.90
16384;DHT22;8301;51.440;6.610;2022-11-24T07:41:19;8.60;99.90
16384;DHT22;8301;51.440;6.610;2022-11-24T07:43:47;8.50;99.90
16384;DHT22;8301;51.440;6.610;2022-11-24T07:46:17;8.50;99.90
16384;DHT22;8301;51.440;6.610;2022-11-24T07:48:45;8.50;99.90
16384;DHT22;8301;51.440;6.610;2022-11-24T07:51:13;8.50;99.90
16384;DHT22;8301;51.440;6.610;2022-11-24T07:53:41;8.60;99.90
16384;DHT22;8301;51.440;6.610;2022-11-24T07:56:09;8.50;99.90
16384;DHT22;8301;51.440;6.610;2022-11-24T07:58:38;8.50;99.90
16384;DHT22;8301;51.440;6.610;2022-11-24T08:01:14;8.50;99.90
16384;DHT22;8301;51.440;6.610;2022-11-24T08:03:43;8.50;99.90
16384;DHT22;8301;51.440;6.610;2022-11-24T08:06:12;8.50;99.90
16384;DHT22;8301;51.440;6.610;2022-11-24T08:08:40;8.50;99.90
16384;DHT22;8301;51.440;6.610;2022-11-24T08:11:11;8.60;99.90
16384;DHT22;8301;51.440;6.610;2022-11-24T08:13:39;8.60;99.90
16384;DHT22;8301;51.440;6.610;2022-11-24T08:16:14;8.60;99.90
16384;DHT22;8301;51.440;6.610;2022-11-24T08:18:42;8.60;99.90
16384;DHT22;8301;51.440;6.610;2022-11-24T08:21:12;8.50;99.90
16384;DHT22;8301;51.440;6.610;2022-11-24T08:23:40;8.50;99.90
16384;DHT22;8301;51.440;6.610;2022-11-24T08:26:11;8.50;99.90
16384;DHT22;8301;51.440;6.610;2022-11-24T08:28:41;8.50;99.90
16384;DHT22;8301;51.440;6.610;2022-11-24T08:31:12;8.50;99.90
16384;DHT22;8301;51.440;6.610;2022-11-24T08:33:40;8.60;99.90
16384;DHT22;8301;51.440;6.610;2022-11-24T08:36:12;8.50;99.90
16384;DHT22;8301;51.440;6.610;2022-11-24T08:38:40;8.50;99.90
16384;DHT22;8301;51.440;6.610;2022-11-24T08:41:10;8.50;99.90
16384;DHT22;8301;51.440;6.610;2022-11-24T08:43:40;8.60;99.90
16384;DHT22;8301;51.440;6.610;2022-11-24T08:46:10;8.60;99.90
16384;DHT22;8301;51.440;6.610;2022-11-24T08:48:49;8.60;99.90
16384;DHT22;8301;51.440;6.610;2022-11-24T08:51:19;8.50;99.90
16384;DHT22;8301;51.440;6.610;2022-11-24T08:53:55;8.70;99.90
16384;DHT22;8301;51.440;6.610;2022-11-24T08:56:25;8.70;99.90
16384;DHT22;8301;51.440;6.610;2022-11-24T08:58:56;8.70;99.90
16384;DHT22;8301;51.440;6.610;2022-11-24T09:01:24;8.70;99.90
16384;DHT22;8301;51.440;6.610;2022-11-24T09:03:52;8.70;99.90
16384;DHT22;8301;51.440;6.610;2022-11-24T09:06:22;8.80;99.90
16384;DHT22;8301;51.440;6.610;2022-11-24T09:08:56;8.70;99.90
16384;DHT22;8301;51.440;6.610;2022-11-24T09:11:20;8.80;99.90
16384;DHT22;8301;51.440;6.610;2022-11-24T09:13:48;8.80;99.90
16384;DHT22;8301;51.440;6.610;2022-11-24T09:16:21;8.80;99.90
16384;DHT22;8301;51.440;6.610;2022-11-24T09:18:54;8.80;99.90
16384;DHT22;8301;51.440;6.610;2022-11-24T09:21:22;8.90;99.90
16384;DHT22;8301;51.440;6.610;2022-11-24T09:23:51;8.90;99.90
16384;DHT22;8301;51.440;6.610;2022-11-24T09:26:21;8.90;99.90
16384;DHT22;8301;51.440;6.610;2022-11-24T09:28:49;8.90;99.90
16384;DHT22;8301;51.440;6.610;2022-11-24T09:31:21;8.90;99.90
16384;DHT22;8301;51.440;6.610;2022-11-24T09:33:49;9.00;99.90
16384;DHT22;8301;51.440;6.610;2022-11-24T09:36:17;8.90;99.90
16384;DHT22;8301;51.440;6.610;2022-11-24T09:38:45;9.00;99.90
16384;DHT22;8301;51.440;6.610;2022-11-24T09:46:47;9.20;99.90
16384;DHT22;8301;51.440;6.610;2022-11-24T09:49:15;9.30;99.90
16384;DHT22;8301;51.440;6.610;2022-11-24T09:51:43;9.30;99.90
16384;DHT22;8301;51.440;6.610;2022-11-24T09:54:15;9.40;99.90
16384;DHT22;8301;51.440;6.610;2022-11-24T09:56:46;9.30;99.90
16384;DHT22;8301;51.440;6.610;2022-11-24T09:59:19;9.40;99.90
16384;DHT22;8301;51.440;6.610;2022-11-24T10:01:49;9.50;99.90
16384;DHT22;8301;51.440;6.610;2022-11-24T10:04:20;9.60;99.90
16384;DHT22;8301;51.440;6.610;2022-11-24T10:07:17;9.70;99.90
16384;DHT22;8301;51.440;6.610;2022-11-24T10:10:21;9.70;99.90
16384;DHT22;8301;51.440;6.610;2022-11-24T10:13:02;9.70;99.90
16384;DHT22;8301;51.440;6.610;2022-11-24T10:21:15;9.60;99.90
16384;DHT22;8301;51.440;6.610;2022-11-24T10:26:34;9.90;99.90
16384;DHT22;8301;51.440;6.610;2022-11-24T10:31:43;9.90;99.90
16384;DHT22;8301;51.440;6.610;2022-11-24T10:37:14;10.00;99.90
16384;DHT22;8301;51.440;6.610;2022-11-24T10:42:36;10.10;99.90
16384;DHT22;8301;51.440;6.610;2022-11-24T10:45:12;10.10;99.90
16384;DHT22;8301;51.440;6.610;2022-11-24T10:47:40;10.20;99.90
16384;DHT22;8301;51.440;6.610;2022-11-24T10:50:23;10.30;99.90
16384;DHT22;8301;51.440;6.610;2022-11-24T10:53:03;10.30;99.90
16384;DHT22;8301;51.440;6.610;2022-11-24T10:58:35;10.30;99.90
16384;DHT22;8301;51.440;6.610;2022-11-24T11:01:18;10.20;99.90
16384;DHT22;8301;51.440;6.610;2022-11-24T11:03:47;10.20;99.90
16384;DHT22;8301;51.440;6.610;2022-11-24T11:06:21;10.20;99.90
16384;DHT22;8301;51.440;6.610;2022-11-24T11:08:49;10.20;99.90
16384;DHT22;8301;51.440;6.610;2022-11-24T11:13:59;10.40;99.90
16384;DHT22;8301;51.440;6.610;2022-11-24T11:16:38;10.50;99.90
16384;DHT22;8301;51.440;6.610;2022-11-24T11:24:46;10.50;99.90
16384;DHT22;8301;51.440;6.610;2022-11-24T11:27:26;10.30;99.90
16384;DHT22;8301;51.440;6.610;2022-11-24T11:29:50;10.30;99.90
16384;DHT22;8301;51.440;6.610;2022-11-24T11:32:21;10.40;99.90
16384;DHT22;8301;51.440;6.610;2022-11-24T11:34:52;10.30;99.90
16384;DHT22;8301;51.440;6.610;2022-11-24T11:37:23;10.30;99.90
16384;DHT22;8301;51.440;6.610;2022-11-24T11:39:53;10.30;99.90
16384;DHT22;8301;51.440;6.610;2022-11-24T11:45:15;10.40;99.90
16384;DHT22;8301;51.440;6.610;2022-11-24T11:50:18;10.60;99.90
16384;DHT22;8301;51.440;6.610;2022-11-24T11:55:42;10.70;99.90
16384;DHT22;8301;51.440;6.610;2022-11-24T12:00:58;10.90;99.90
16384;DHT22;8301;51.440;6.610;2022-11-24T12:03:37;11.10;99.90
16384;DHT22;8301;51.440;6.610;2022-11-24T12:11:56;11.40;99.90
16384;DHT22;8301;51.440;6.610;2022-11-24T12:14:29;11.20;99.90
16384;DHT22;8301;51.440;6.610;2022-11-24T12:17:04;11.10;99.90
16384;DHT22;8301;51.440;6.610;2022-11-24T12:22:18;11.30;99.90
16384;DHT22;8301;51.440;6.610;2022-11-24T12:27:58;11.30;99.90
16384;DHT22;8301;51.440;6.610;2022-11-24T12:30:23;11.40;99.90
16384;DHT22;8301;51.440;6.610;2022-11-24T12:35:45;11.40;99.90
16384;DHT22;8301;51.440;6.610;2022-11-24T12:41:20;11.30;99.90
16384;DHT22;8301;51.440;6.610;2022-11-24T12:43:50;11.40;99.90
16384;DHT22;8301;51.440;6.610;2022-11-24T12:46:28;11.50;99.90
16384;DHT22;8301;51.440;6.610;2022-11-24T12:49:03;11.50;99.90
16384;DHT22;8301;51.440;6.610;2022-11-24T12:51:37;11.60;99.90
16384;DHT22;8301;51.440;6.610;2022-11-24T12:54:09;11.80;99.90
16384;DHT22;8301;51.440;6.610;2022-11-24T12:56:39;11.60;99.90
16384;DHT22;8301;51.440;6.610;2022-11-24T12:59:23;11.60;99.90
16384;DHT22;8301;51.440;6.610;2022-11-24T13:02:37;11.70;99.90
16384;DHT22;8301;51.440;6.610;2022-11-24T13:07:09;11.50;99.90
16384;DHT22;8301;51.440;6.610;2022-11-24T13:09:39;11.50;99.90
16384;DHT22;8301;51.440;6.610;2022-11-24T13:12:13;11.50;99.90
16384;DHT22;8301;51.440;6.610;2022-11-24T13:14:42;11.40;99.90
16384;DHT22;8301;51.440;6.610;2022-11-24T13:17:26;11.40;99.90
16384;DHT22;8301;51.440;6.610;2022-11-24T13:22:50;11.50;99.90
16384;DHT22;8301;51.440;6.610;2022-11-24T13:25:25;11.50;99.90
16384;DHT22;8301;51.440;6.610;2022-11-24T13:27:56;11.60;99.90
16384;DHT22;8301;51.440;6.610;2022-11-24T13:36:27;11.40;99.90
16384;DHT22;8301;51.440;6.610;2022-11-24T13:44:23;11.30;99.90
16384;DHT22;8301;51.440;6.610;2022-11-24T13:49:37;11.30;99.90
16384;DHT22;8301;51.440;6.610;2022-11-24T14:01:11;11.30;99.90
16384;DHT22;8301;51.440;6.610;2022-11-24T14:03:58;11.20;99.90
16384;DHT22;8301;51.440;6.610;2022-11-24T14:06:38;11.20;99.90
16384;DHT22;8301;51.440;6.610;2022-11-24T14:12:00;11.10;99.90
16384;DHT22;8301;51.440;6.610;2022-11-24T14:14:28;11.10;99.90
16384;DHT22;8301;51.440;6.610;2022-11-24T14:19:43;11.10;99.90
16384;DHT22;8301;51.440;6.610;2022-11-24T14:22:35;11.10;99.90
16384;DHT22;8301;51.440;6.610;2022-11-24T14:25:04;11.00;99.90
16384;DHT22;8301;51.440;6.610;2022-11-24T14:27:37;11.00;99.90
16384;DHT22;8301;51.440;6.610;2022-11-24T14:32:57;10.90;99.90
16384;DHT22;8301;51.440;6.610;2022-11-24T14:35:25;10.90;99.90
16384;DHT22;8301;51.440;6.610;2022-11-24T14:37:53;10.90;99.90
16384;DHT22;8301;51.440;6.610;2022-11-24T14:40:47;10.80;99.90
16384;DHT22;8301;51.440;6.610;2022-11-24T14:43:20;10.80;99.90
16384;DHT22;8301;51.440;6.610;2022-11-24T14:45:57;10.60;99.90
16384;DHT22;8301;51.440;6.610;2022-11-24T14:48:29;10.60;99.90
16384;DHT22;8301;51.440;6.610;2022-11-24T14:53:44;10.50;99.90
16384;DHT22;8301;51.440;6.610;2022-11-24T14:56:25;10.50;99.90
16384;DHT22;8301;51.440;6.610;2022-11-24T14:58:54;10.50;99.90
16384;DHT22;8301;51.440;6.610;2022-11-24T15:06:44;10.30;99.90
16384;DHT22;8301;51.440;6.610;2022-11-24T15:09:30;10.20;99.90
16384;DHT22;8301;51.440;6.610;2022-11-24T15:12:03;10.20;99.90
16384;DHT22;8301;51.440;6.610;2022-11-24T15:17:18;10.00;99.90
16384;DHT22;8301;51.440;6.610;2022-11-24T15:19:49;10.00;99.90
16384;DHT22;8301;51.440;6.610;2022-11-24T15:24:57;9.80;99.90
16384;DHT22;8301;51.440;6.610;2022-11-24T15:27:24;9.70;99.90
16384;DHT22;8301;51.440;6.610;2022-11-24T15:29:52;9.70;99.90
16384;DHT22;8301;51.440;6.610;2022-11-24T15:32:19;9.60;99.90
16384;DHT22;8301;51.440;6.610;2022-11-24T15:34:48;9.50;99.90
16384;DHT22;8301;51.440;6.610;2022-11-24T15:37:15;9.40;99.90
16384;DHT22;8301;51.440;6.610;2022-11-24T15:39:43;9.30;99.90
16384;DHT22;8301;51.440;6.610;2022-11-24T15:42:11;9.30;99.90
16384;DHT22;8301;51.440;6.610;2022-11-24T15:44:38;9.20;99.90
16384;DHT22;8301;51.440;6.610;2022-11-24T15:47:12;9.10;99.90
16384;DHT22;8301;51.440;6.610;2022-11-24T15:49:39;9.10;99.90
16384;DHT22;8301;51.440;6.610;2022-11-24T15:52:07;9.00;99.90
16384;DHT22;8301;51.440;6.610;2022-11-24T15:54:34;9.00;99.90
16384;DHT22;8301;51.440;6.610;2022-11-24T15:57:03;9.00;99.90
16384;DHT22;8301;51.440;6.610;2022-11-24T15:59:31;8.90;99.90
16384;DHT22;8301;51.440;6.610;2022-11-24T16:01:59;8.90;99.90
16384;DHT22;8301;51.440;6.610;2022-11-24T16:04:26;8.90;99.90
16384;DHT22;8301;51.440;6.610;2022-11-24T16:06:54;8.80;99.90
16384;DHT22;8301;51.440;6.610;2022-11-24T16:09:21;8.80;99.90
16384;DHT22;8301;51.440;6.610;2022-11-24T16:11:49;8.70;99.90
16384;DHT22;8301;51.440;6.610;2022-11-24T16:14:16;8.70;99.90
16384;DHT22;8301;51.440;6.610;2022-11-24T16:16:44;8.70;99.90
16384;DHT22;8301;51.440;6.610;2022-11-24T16:19:11;8.60;99.90
16384;DHT22;8301;51.440;6.610;2022-11-24T16:21:40;8.60;99.90
16384;DHT22;8301;51.440;6.610;2022-11-24T16:24:08;8.60;99.90
16384;DHT22;8301;51.440;6.610;2022-11-24T16:26:35;8.60;99.90
16384;DHT22;8301;51.440;6.610;2022-11-24T16:29:03;8.50;99.90
16384;DHT22;8301;51.440;6.610;2022-11-24T16:31:34;8.50;99.90
16384;DHT22;8301;51.440;6.610;2022-11-24T16:34:02;8.50;99.90
16384;DHT22;8301;51.440;6.610;2022-11-24T16:36:29;8.50;99.90
16384;DHT22;8301;51.440;6.610;2022-11-24T16:38:58;8.50;99.90
16384;DHT22;8301;51.440;6.610;2022-11-24T16:41:26;8.50;99.90
16384;DHT22;8301;51.440;6.610;2022-11-24T16:43:54;8.40;99.90
16384;DHT22;8301;51.440;6.610;2022-11-24T16:46:22;8.40;99.90
16384;DHT22;8301;51.440;6.610;2022-11-24T16:48:52;8.40;99.90
16384;DHT22;8301;51.440;6.610;2022-11-24T16:51:21;8.30;99.90
16384;DHT22;8301;51.440;6.610;2022-11-24T16:53:58;8.30;99.90
16384;DHT22;8301;51.440;6.610;2022-11-24T16:56:27;8.30;99.90
16384;DHT22;8301;51.440;6.610;2022-11-24T16:58:55;8.30;99.90
16384;DHT22;8301;51.440;6.610;2022-11-24T17:01:23;8.20;99.90
16384;DHT22;8301;51.440;6.610;2022-11-24T17:03:52;8.10;99.90
16384;DHT22;8301;51.440;6.610;2022-11-24T17:06:19;8.10;99.90
16384;DHT22;8301;51.440;6.610;2022-11-24T17:08:48;8.10;99.90
16384;DHT22;8301;51.440;6.610;2022-11-24T17:11:21;8.00;99.90
16384;DHT22;8301;51.440;6.610;2022-11-24T17:13:50;8.00;99.90
16384;DHT22;8301;51.440;6.610;2022-11-24T17:16:20;8.00;99.90
16384;DHT22;8301;51.440;6.610;2022-11-24T17:18:48;7.90;99.90
16384;DHT22;8301;51.440;6.610;2022-11-24T17:21:18;7.90;99.90
16384;DHT22;8301;51.440;6.610;2022-11-24T17:23:46;7.90;99.90
16384;DHT22;8301;51.440;6.610;2022-11-24T17:26:15;7.90;99.90
16384;DHT22;8301;51.440;6.610;2022-11-24T17:28:43;7.90;99.90
16384;DHT22;8301;51.440;6.610;2022-11-24T17:31:25;7.90;99.90
16384;DHT22;8301;51.440;6.610;2022-11-24T17:33:55;7.80;99.90
16384;DHT22;8301;51.440;6.610;2022-11-24T17:36:23;7.80;99.90
16384;DHT22;8301;51.440;6.610;2022-11-24T17:38:51;7.80;99.90
16384;DHT22;8301;51.440;6.610;2022-11-24T17:41:20;7.80;99.90
16384;DHT22;8301;51.440;6.610;2022-11-24T17:43:51;7.80;99.90
16384;DHT22;8301;51.440;6.610;2022-11-24T17:46:21;7.80;99.90
16384;DHT22;8301;51.440;6.610;2022-11-24T17:48:49;7.80;99.90
16384;DHT22;8301;51.440;6.610;2022-11-24T17:51:19;7.80;99.90
16384;DHT22;8301;51.440;6.610;2022-11-24T17:53:48;7.90;99.90
16384;DHT22;8301;51.440;6.610;2022-11-24T17:56:18;7.90;99.90
16384;DHT22;8301;51.440;6.610;2022-11-24T17:58:45;8.00;99.90
16384;DHT22;8301;51.440;6.610;2022-11-24T18:01:13;8.00;99.90
16384;DHT22;8301;51.440;6.610;2022-11-24T18:03:41;8.00;99.90
16384;DHT22;8301;51.440;6.610;2022-11-24T18:06:10;8.00;99.90
16384;DHT22;8301;51.440;6.610;2022-11-24T18:08:39;8.00;99.90
16384;DHT22;8301;51.440;6.610;2022-11-24T18:11:14;8.00;99.90
16384;DHT22;8301;51.440;6.610;2022-11-24T18:13:38;7.90;99.90